Time;durP1;ratioP1;P1;durP2;ratioP2;P2;SDS_P1;SDS_P2;PMS_P1;PMS_P2;Temp;Humidity;BMP_temperature;BMP_pressure;BME280_temperature;BME280_humidity;BME280_pressure;Samples;Min_cycle;Max_cycle;Signal;HPM_P1;HPM_P2
2021/06/07 00:01:22;;;;;;;15.25;13.68;;;;;;;;;;5052493;28;20498;-81
2021/06/07 00:03:49;;;;;;;15.73;14.07;;;;;;;;;;5048597;28;20049;-82
2021/06/07 00:06:15;;;;;;;17.50;14.05;;;;;;;;;;5051835;28;20151;-78
2021/06/07 00:08:41;;;;;;;18.42;15.00;;;;;;;;;;5050112;28;20108;-77
2021/06/07 00:11:07;;;;;;;16.58;15.05;;;;;;;;;;5051000;28;20025;-81
2021/06/07 00:13:34;;;;;;;16.77;14.98;;;;;;;;;;5045699;28;20025;-81
2021/06/07 00:16:01;;;;;;;18.10;16.02;;;;;;;;;;5053478;28;20037;-75
2021/06/07 00:18:27;;;;;;;18.20;16.27;;;;;;;;;;5050164;28;20119;-75
2021/06/07 00:20:59;;;;;;;18.27;15.60;;;;;;;;;;5054592;28;20107;-82
2021/06/07 00:23:25;;;;;;;17.70;15.90;;;;;;;;;;5050581;28;20375;-79
2021/06/07 00:25:53;;;;;;;17.95;16.25;;;;;;;;;;5050337;28;20025;-83
2021/06/07 00:28:19;;;;;;;16.65;15.10;;;;;;;;;;5053713;28;20035;-74
2021/06/07 00:30:46;;;;;;;17.23;15.45;;;;;;;;;;5048089;28;20588;-83
2021/06/07 00:33:12;;;;;;;16.83;15.10;;;;;;;;;;5050065;28;20040;-82
2021/06/07 00:35:38;;;;;;;17.35;15.65;;;;;;;;;;5044817;28;20026;-81
2021/06/07 00:38:04;;;;;;;17.40;15.68;;;;;;;;;;5031111;28;20041;-81
2021/06/07 00:40:30;;;;;;;19.02;16.77;;;;;;;;;;5052215;28;20033;-82
2021/06/07 00:42:57;;;;;;;18.70;16.73;;;;;;;;;;5051393;28;20025;-81
2021/06/07 00:45:25;;;;;;;18.77;16.80;;;;;;;;;;5052148;28;20024;-82
2021/06/07 00:47:52;;;;;;;18.98;16.95;;;;;;;;;;5046353;28;20037;-84
2021/06/07 00:50:30;;;;;;;19.10;16.98;;;;;;;;;;5052811;28;20021;-81
2021/06/07 00:53:01;;;;;;;19.02;17.15;;;;;;;;;;5050654;28;20104;-80
2021/06/07 00:55:28;;;;;;;18.15;16.25;;;;;;;;;;5051218;28;20502;-81
2021/06/07 00:57:56;;;;;;;17.75;15.95;;;;;;;;;;5034069;28;20468;-85
2021/06/07 01:00:24;;;;;;;18.02;16.00;;;;;;;;;;5054899;28;20090;-83
2021/06/07 01:02:50;;;;;;;17.75;16.15;;;;;;;;;;5065431;28;20493;-82
2021/06/07 01:05:16;;;;;;;17.60;15.95;;;;;;;;;;5069160;28;20033;-81
2021/06/07 01:07:44;;;;;;;17.67;15.50;;;;;;;;;;5068261;28;20052;-76
2021/06/07 01:10:11;;;;;;;18.73;17.02;;;;;;;;;;5063181;28;20036;-74
2021/06/07 01:12:37;;;;;;;18.77;16.77;;;;;;;;;;5052329;28;20098;-80
2021/06/07 01:15:08;;;;;;;18.15;16.45;;;;;;;;;;5046715;28;20125;-76
2021/06/07 01:17:34;;;;;;;18.52;16.60;;;;;;;;;;5055558;28;20075;-79
2021/06/07 01:20:00;;;;;;;22.15;18.20;;;;;;;;;;5057029;28;20096;-78
2021/06/07 01:22:26;;;;;;;18.70;16.95;;;;;;;;;;5045769;28;20021;-79
2021/06/07 01:24:52;;;;;;;19.45;17.45;;;;;;;;;;5054824;28;20021;-79
2021/06/07 01:27:19;;;;;;;19.08;17.27;;;;;;;;;;5046610;28;21265;-79
2021/06/07 01:29:45;;;;;;;17.83;16.00;;;;;;;;;;5039128;28;20417;-77
2021/06/07 01:32:11;;;;;;;20.23;18.25;;;;;;;;;;5057645;28;20079;-78
2021/06/07 01:34:37;;;;;;;23.30;20.38;;;;;;;;;;5055319;28;20025;-79
2021/06/07 01:37:04;;;;;;;21.15;19.25;;;;;;;;;;5054622;28;20033;-78
2021/06/07 01:39:30;;;;;;;19.67;17.63;;;;;;;;;;5057802;28;20029;-80
2021/06/07 01:41:56;;;;;;;22.17;19.88;;;;;;;;;;5067861;28;20021;-75
2021/06/07 01:44:22;;;;;;;20.38;18.48;;;;;;;;;;5073779;28;20048;-76
2021/06/07 01:46:48;;;;;;;19.45;17.00;;;;;;;;;;5067262;28;20051;-76
2021/06/07 01:49:15;;;;;;;21.80;19.63;;;;;;;;;;5069258;28;20027;-77
2021/06/07 01:51:41;;;;;;;22.50;20.33;;;;;;;;;;5062240;28;20060;-74
2021/06/07 01:54:07;;;;;;;22.83;20.58;;;;;;;;;;5056013;28;20025;-79
2021/06/07 01:56:36;;;;;;;21.55;19.40;;;;;;;;;;5055297;28;20060;-74
2021/06/07 01:59:03;;;;;;;19.98;17.88;;;;;;;;;;5059022;28;20028;-74
2021/06/07 02:01:29;;;;;;;20.33;18.30;;;;;;;;;;5059730;28;20021;-74
2021/06/07 02:03:57;;;;;;;21.00;18.90;;;;;;;;;;5069117;28;20057;-73
2021/06/07 02:06:25;;;;;;;19.55;17.73;;;;;;;;;;5072578;28;20025;-77
2021/06/07 02:08:55;;;;;;;22.48;19.63;;;;;;;;;;5067377;28;20031;-74
2021/06/07 02:11:31;;;;;;;21.55;19.45;;;;;;;;;;5060883;28;20040;-77
2021/06/07 02:14:03;;;;;;;23.45;20.95;;;;;;;;;;5055122;28;20505;-75
2021/06/07 02:16:31;;;;;;;21.67;19.67;;;;;;;;;;5055173;28;20057;-79
2021/06/07 02:18:58;;;;;;;22.30;19.95;;;;;;;;;;5055601;28;20029;-81
2021/06/07 02:21:25;;;;;;;20.65;18.65;;;;;;;;;;5056082;28;20430;-80
2021/06/07 02:23:51;;;;;;;21.63;18.73;;;;;;;;;;5049005;28;20108;-79
2021/06/07 02:26:18;;;;;;;20.23;18.23;;;;;;;;;;5057739;28;20597;-80
2021/06/07 02:28:49;;;;;;;21.73;19.70;;;;;;;;;;5064767;28;20044;-79
2021/06/07 02:31:15;;;;;;;23.95;18.92;;;;;;;;;;5044394;28;20516;-81
2021/06/07 02:33:41;;;;;;;21.00;19.02;;;;;;;;;;5062106;28;20033;-80
2021/06/07 02:36:07;;;;;;;19.70;17.80;;;;;;;;;;5062043;28;20047;-77
2021/06/07 02:38:34;;;;;;;21.17;19.10;;;;;;;;;;5069892;28;20025;-78
2021/06/07 02:41:00;;;;;;;21.88;19.77;;;;;;;;;;5072285;28;20021;-75
2021/06/07 02:43:26;;;;;;;23.05;20.75;;;;;;;;;;5071436;28;20029;-74
2021/06/07 02:45:52;;;;;;;22.27;18.98;;;;;;;;;;5069510;28;20025;-81
2021/06/07 02:48:18;;;;;;;21.60;19.42;;;;;;;;;;5068647;28;20032;-75
2021/06/07 02:50:46;;;;;;;20.65;18.58;;;;;;;;;;5073208;28;20005;-76
2021/06/07 02:53:31;;;;;;;24.98;21.88;;;;;;;;;;5074982;28;20035;-75
2021/06/07 02:55:58;;;;;;;24.25;21.85;;;;;;;;;;5053596;28;20191;-75
2021/06/07 02:58:24;;;;;;;24.27;21.60;;;;;;;;;;5060401;28;20022;-75
2021/06/07 03:00:52;;;;;;;23.77;21.50;;;;;;;;;;5069305;28;20036;-79
2021/06/07 03:03:18;;;;;;;22.48;20.38;;;;;;;;;;5071457;28;20095;-81
2021/06/07 03:05:47;;;;;;;23.10;19.92;;;;;;;;;;5072860;28;20045;-80
2021/06/07 03:08:14;;;;;;;22.30;19.27;;;;;;;;;;5066770;28;20501;-74
2021/06/07 03:10:40;;;;;;;23.38;21.08;;;;;;;;;;5058593;28;20032;-78
2021/06/07 03:13:06;;;;;;;21.38;19.33;;;;;;;;;;5060761;28;20025;-79
2021/06/07 03:15:33;;;;;;;20.45;18.50;;;;;;;;;;5057339;28;20118;-75
2021/06/07 03:17:59;;;;;;;22.77;18.95;;;;;;;;;;5059956;28;20140;-78
2021/06/07 03:20:27;;;;;;;21.17;18.88;;;;;;;;;;5057642;28;20041;-75
2021/06/07 03:22:58;;;;;;;21.92;19.83;;;;;;;;;;5040414;28;20037;-79
2021/06/07 03:25:24;;;;;;;22.95;20.48;;;;;;;;;;5054788;28;20028;-79
2021/06/07 03:27:51;;;;;;;21.45;18.88;;;;;;;;;;5052674;28;20375;-79
2021/06/07 03:30:17;;;;;;;19.98;17.75;;;;;;;;;;5054589;28;20021;-78
2021/06/07 03:32:44;;;;;;;19.42;17.42;;;;;;;;;;5061966;28;20082;-79
2021/06/07 03:35:11;;;;;;;19.15;16.98;;;;;;;;;;5064116;28;20036;-79
2021/06/07 03:37:38;;;;;;;18.23;16.27;;;;;;;;;;5062797;28;20021;-79
2021/06/07 03:40:05;;;;;;;17.63;15.77;;;;;;;;;;5062273;28;20494;-77
2021/06/07 03:42:32;;;;;;;17.10;15.40;;;;;;;;;;5073017;28;20046;-79
2021/06/07 03:45:00;;;;;;;17.80;16.10;;;;;;;;;;5066958;28;20029;-77
2021/06/07 03:47:26;;;;;;;20.05;16.38;;;;;;;;;;5065467;28;20543;-81
2021/06/07 03:49:52;;;;;;;19.77;15.48;;;;;;;;;;5058588;28;20540;-81
2021/06/07 03:52:18;;;;;;;20.02;14.65;;;;;;;;;;5065809;28;20028;-74
2021/06/07 03:54:44;;;;;;;20.20;14.57;;;;;;;;;;5057785;28;20020;-81
2021/06/07 03:57:11;;;;;;;19.98;14.27;;;;;;;;;;5064611;28;20078;-80
2021/06/07 03:59:37;;;;;;;19.10;13.38;;;;;;;;;;5055418;28;20026;-77
2021/06/07 04:02:07;;;;;;;16.80;12.77;;;;;;;;;;5059402;28;20048;-81
2021/06/07 04:04:33;;;;;;;14.90;12.90;;;;;;;;;;5057474;28;20046;-82
2021/06/07 04:06:59;;;;;;;13.73;12.27;;;;;;;;;;5043349;28;20048;-81
2021/06/07 04:09:26;;;;;;;18.80;12.52;;;;;;;;;;5052980;28;20068;-81
2021/06/07 04:11:55;;;;;;;24.38;15.23;;;;;;;;;;5053612;28;20026;-81
2021/06/07 04:14:21;;;;;;;18.05;16.10;;;;;;;;;;5054946;28;20043;-78
2021/06/07 04:16:47;;;;;;;21.00;15.13;;;;;;;;;;5058260;28;20048;-79
2021/06/07 04:19:13;;;;;;;14.70;11.85;;;;;;;;;;5052315;28;20029;-78
2021/06/07 04:21:40;;;;;;;21.48;11.60;;;;;;;;;;5036238;28;20500;-77
2021/06/07 04:24:07;;;;;;;17.00;11.40;;;;;;;;;;5050951;28;20084;-75
2021/06/07 04:26:33;;;;;;;22.80;11.38;;;;;;;;;;5052018;28;20036;-79
2021/06/07 04:28:59;;;;;;;12.95;10.48;;;;;;;;;;5054273;28;20386;-79
2021/06/07 04:31:26;;;;;;;14.05;10.13;;;;;;;;;;5052519;28;20083;-79
2021/06/07 04:33:52;;;;;;;15.45;9.35;;;;;;;;;;5049044;28;20037;-80
2021/06/07 04:36:18;;;;;;;11.45;8.90;;;;;;;;;;5052098;28;20103;-79
2021/06/07 04:38:45;;;;;;;12.43;7.22;;;;;;;;;;5052683;28;20036;-75
2021/06/07 04:41:11;;;;;;;18.92;8.57;;;;;;;;;;5040439;28;20030;-82
2021/06/07 04:43:37;;;;;;;18.23;8.40;;;;;;;;;;5053454;28;20072;-79
2021/06/07 04:46:03;;;;;;;14.50;7.43;;;;;;;;;;5034002;28;20017;-77
2021/06/07 04:48:29;;;;;;;9.23;6.93;;;;;;;;;;5051024;28;20029;-76
2021/06/07 04:50:55;;;;;;;25.83;8.48;;;;;;;;;;5055786;28;20028;-88
2021/06/07 04:53:21;;;;;;;11.32;7.90;;;;;;;;;;5062446;28;20033;-86
2021/06/07 04:55:49;;;;;;;10.98;7.28;;;;;;;;;;5043427;28;20147;-74
2021/06/07 04:58:25;;;;;;;11.02;8.25;;;;;;;;;;5051193;28;20497;-75
2021/06/07 05:00:53;;;;;;;13.07;9.43;;;;;;;;;;5059088;28;20024;-81
2021/06/07 05:03:19;;;;;;;13.27;11.65;;;;;;;;;;5060307;28;20140;-85
2021/06/07 05:05:46;;;;;;;17.42;12.95;;;;;;;;;;5051798;28;20020;-75
2021/06/07 05:08:13;;;;;;;16.85;14.45;;;;;;;;;;5051585;28;20033;-74
2021/06/07 05:10:39;;;;;;;20.77;14.05;;;;;;;;;;5051278;28;20021;-75
2021/06/07 05:13:06;;;;;;;18.83;15.10;;;;;;;;;;5052274;28;20017;-75
2021/06/07 05:15:34;;;;;;;16.13;14.15;;;;;;;;;;5044292;28;20037;-75
2021/06/07 05:18:01;;;;;;;18.10;13.27;;;;;;;;;;5050710;28;20017;-73
2021/06/07 05:20:27;;;;;;;20.17;15.00;;;;;;;;;;5052040;28;20029;-73
2021/06/07 05:22:54;;;;;;;20.27;14.88;;;;;;;;;;5043222;28;20075;-74
2021/06/07 05:25:21;;;;;;;21.65;14.02;;;;;;;;;;5045034;28;20025;-75
2021/06/07 05:27:48;;;;;;;24.67;13.48;;;;;;;;;;5049665;28;20037;-72
2021/06/07 05:30:14;;;;;;;17.05;13.65;;;;;;;;;;5050594;28;20112;-83
2021/06/07 05:32:40;;;;;;;19.45;12.93;;;;;;;;;;5033222;28;20079;-81
2021/06/07 05:35:07;;;;;;;20.17;12.60;;;;;;;;;;5051652;28;20029;-82
2021/06/07 05:37:34;;;;;;;15.68;12.52;;;;;;;;;;5051306;28;20040;-80
2021/06/07 05:40:00;;;;;;;19.13;12.95;;;;;;;;;;5050699;28;20025;-78
2021/06/07 05:42:27;;;;;;;20.33;13.38;;;;;;;;;;5048458;28;20025;-81
2021/06/07 05:44:53;;;;;;;19.88;14.52;;;;;;;;;;5049382;28;20024;-76
2021/06/07 05:47:19;;;;;;;18.80;13.82;;;;;;;;;;5049445;28;20490;-80
2021/06/07 05:49:45;;;;;;;17.90;13.75;;;;;;;;;;5049654;28;20061;-82
2021/06/07 05:52:12;;;;;;;19.92;13.93;;;;;;;;;;5027349;28;20036;-72
2021/06/07 05:54:39;;;;;;;17.88;12.45;;;;;;;;;;5051572;28;20033;-78
2021/06/07 05:57:06;;;;;;;15.00;12.77;;;;;;;;;;5050557;28;20025;-84
2021/06/07 05:59:35;;;;;;;15.57;13.13;;;;;;;;;;5048439;28;20029;-86
2021/06/07 06:02:01;;;;;;;18.73;14.07;;;;;;;;;;5050929;28;20021;-77
2021/06/07 06:04:27;;;;;;;18.95;14.38;;;;;;;;;;5049669;28;20053;-75
2021/06/07 06:06:53;;;;;;;21.60;15.15;;;;;;;;;;5050799;28;20071;-76
2021/06/07 06:09:19;;;;;;;26.77;15.20;;;;;;;;;;5030415;28;20029;-76
2021/06/07 06:11:45;;;;;;;20.75;15.15;;;;;;;;;;5051123;28;20025;-75
2021/06/07 06:14:12;;;;;;;18.38;15.05;;;;;;;;;;5050361;28;20033;-76
2021/06/07 06:16:38;;;;;;;22.38;14.25;;;;;;;;;;5047788;28;20037;-78
2021/06/07 06:19:04;;;;;;;26.60;14.40;;;;;;;;;;5050234;28;20037;-77
2021/06/07 06:21:30;;;;;;;30.38;14.50;;;;;;;;;;5050746;28;20044;-79
2021/06/07 06:23:57;;;;;;;15.65;11.18;;;;;;;;;;5056570;28;20033;-77
2021/06/07 06:26:23;;;;;;;18.13;12.38;;;;;;;;;;5049535;28;20100;-76
2021/06/07 06:28:50;;;;;;;14.88;11.82;;;;;;;;;;5051153;28;20033;-78
2021/06/07 06:31:17;;;;;;;21.30;13.52;;;;;;;;;;5047198;28;20447;-84
2021/06/07 06:33:43;;;;;;;17.50;11.13;;;;;;;;;;5047512;28;20108;-88
2021/06/07 06:36:09;;;;;;;14.48;11.52;;;;;;;;;;5049468;28;20086;-86
2021/06/07 06:38:36;;;;;;;17.70;10.40;;;;;;;;;;5052176;28;20041;-88
2021/06/07 06:41:03;;;;;;;16.60;11.73;;;;;;;;;;5055477;28;20096;-81
2021/06/07 06:43:29;;;;;;;18.80;11.70;;;;;;;;;;5054512;28;20490;-76
2021/06/07 06:45:55;;;;;;;17.20;11.85;;;;;;;;;;5053847;28;20021;-82
2021/06/07 06:48:21;;;;;;;14.95;12.38;;;;;;;;;;5052948;28;20079;-80
2021/06/07 06:50:47;;;;;;;20.58;13.23;;;;;;;;;;5054413;28;20112;-74
2021/06/07 06:53:16;;;;;;;13.98;12.00;;;;;;;;;;5054905;28;20112;-91
2021/06/07 06:55:42;;;;;;;16.40;11.40;;;;;;;;;;5055537;28;20463;-83
2021/06/07 06:58:08;;;;;;;12.70;9.07;;;;;;;;;;5054320;28;20112;-78
2021/06/07 07:00:38;;;;;;;13.65;9.40;;;;;;;;;;5054075;28;20025;-78
2021/06/07 07:03:30;;;;;;;16.83;10.65;;;;;;;;;;5052135;28;20120;-88
2021/06/07 07:05:56;;;;;;;14.15;10.80;;;;;;;;;;5048168;28;20044;-76
2021/06/07 07:08:24;;;;;;;19.52;11.23;;;;;;;;;;5051607;28;20045;-81
2021/06/07 07:10:50;;;;;;;15.20;10.88;;;;;;;;;;5052789;28;20021;-82
2021/06/07 07:13:16;;;;;;;17.08;10.82;;;;;;;;;;5052982;28;20037;-81
2021/06/07 07:15:43;;;;;;;15.15;11.07;;;;;;;;;;5057179;28;20075;-76
2021/06/07 07:18:10;;;;;;;14.65;10.48;;;;;;;;;;5051441;28;20031;-81
2021/06/07 07:20:37;;;;;;;13.82;11.48;;;;;;;;;;5054009;28;20028;-87
2021/06/07 07:23:04;;;;;;;15.13;11.20;;;;;;;;;;5035646;28;20028;-83
2021/06/07 07:25:30;;;;;;;13.82;11.43;;;;;;;;;;5031998;28;20044;-82
2021/06/07 07:27:56;;;;;;;16.38;11.65;;;;;;;;;;5035834;28;20181;-83
2021/06/07 07:30:36;;;;;;;14.32;11.18;;;;;;;;;;5055371;28;20017;-82
2021/06/07 07:33:08;;;;;;;16.60;11.13;;;;;;;;;;5049723;28;20037;-87
2021/06/07 07:35:35;;;;;;;20.17;11.60;;;;;;;;;;5052234;28;20474;-79
2021/06/07 07:38:01;;;;;;;16.55;11.77;;;;;;;;;;5053666;28;20025;-79
2021/06/07 07:40:28;;;;;;;19.83;12.52;;;;;;;;;;5057325;28;20055;-95
2021/06/07 07:42:57;;;;;;;15.13;12.45;;;;;;;;;;5054561;28;20414;-88
2021/06/07 07:45:26;;;;;;;15.55;12.05;;;;;;;;;;5052153;28;20031;-78
2021/06/07 07:47:53;;;;;;;17.45;11.93;;;;;;;;;;5053753;28;20064;-81
2021/06/07 07:50:19;;;;;;;17.23;11.18;;;;;;;;;;5051040;28;20025;-80
2021/06/07 07:52:45;;;;;;;12.27;8.00;;;;;;;;;;5034510;28;20037;-80
2021/06/07 07:55:13;;;;;;;13.60;8.20;;;;;;;;;;5053359;28;20029;-80
2021/06/07 07:57:41;;;;;;;15.70;8.05;;;;;;;;;;5052113;28;20506;-81
2021/06/07 08:00:08;;;;;;;13.15;8.20;;;;;;;;;;5053343;28;20033;-82
2021/06/07 08:02:34;;;;;;;11.50;7.97;;;;;;;;;;5037395;28;20045;-82
2021/06/07 08:05:00;;;;;;;10.70;6.80;;;;;;;;;;5030616;28;20494;-80
2021/06/07 08:07:26;;;;;;;13.05;6.85;;;;;;;;;;5039498;28;20045;-73
2021/06/07 08:09:52;;;;;;;13.25;6.63;;;;;;;;;;5052248;28;20374;-72
2021/06/07 08:12:19;;;;;;;12.05;6.95;;;;;;;;;;5051531;28;20120;-89
2021/06/07 08:14:45;;;;;;;7.47;5.15;;;;;;;;;;5033343;28;20040;-75
2021/06/07 08:17:11;;;;;;;8.38;5.00;;;;;;;;;;5052629;28;20057;-82
2021/06/07 08:19:37;;;;;;;5.45;4.90;;;;;;;;;;5052196;28;20048;-76
2021/06/07 08:22:04;;;;;;;9.10;4.82;;;;;;;;;;5051633;28;20043;-84
2021/06/07 08:24:30;;;;;;;7.85;4.53;;;;;;;;;;5052830;28;20036;-75
2021/06/07 08:26:56;;;;;;;6.55;5.10;;;;;;;;;;5048915;28;20080;-74
2021/06/07 08:29:22;;;;;;;6.72;4.50;;;;;;;;;;5052638;28;20041;-73
2021/06/07 08:31:48;;;;;;;6.03;4.43;;;;;;;;;;5051198;28;20017;-78
2021/06/07 08:34:14;;;;;;;12.55;4.93;;;;;;;;;;5047476;28;20041;-74
2021/06/07 08:36:41;;;;;;;11.15;4.30;;;;;;;;;;5052174;28;20387;-77
2021/06/07 08:39:10;;;;;;;7.95;4.32;;;;;;;;;;5051716;28;20070;-74
2021/06/07 08:41:36;;;;;;;9.48;4.10;;;;;;;;;;5052772;28;20025;-75
2021/06/07 08:44:02;;;;;;;6.80;4.35;;;;;;;;;;5052661;28;20017;-75
2021/06/07 08:46:28;;;;;;;8.70;5.07;;;;;;;;;;5052496;28;20039;-75
2021/06/07 08:48:55;;;;;;;5.55;3.92;;;;;;;;;;5052075;28;20047;-83
2021/06/07 08:51:21;;;;;;;7.13;4.30;;;;;;;;;;5033443;28;20435;-78
2021/06/07 08:53:48;;;;;;;5.93;3.92;;;;;;;;;;5047498;28;20033;-76
2021/06/07 08:56:15;;;;;;;8.00;4.15;;;;;;;;;;5048483;28;20474;-80
2021/06/07 08:58:41;;;;;;;4.82;3.92;;;;;;;;;;5035379;28;20469;-78
2021/06/07 09:01:09;;;;;;;7.07;3.75;;;;;;;;;;5052888;28;20032;-80
2021/06/07 09:03:36;;;;;;;4.22;3.25;;;;;;;;;;5051537;28;20101;-81
2021/06/07 09:06:03;;;;;;;5.68;3.53;;;;;;;;;;5051602;28;20020;-80
2021/06/07 09:08:34;;;;;;;4.00;3.25;;;;;;;;;;5047565;28;20114;-81
2021/06/07 09:11:06;;;;;;;4.60;3.33;;;;;;;;;;5031183;28;20402;-80
2021/06/07 09:13:32;;;;;;;6.28;3.65;;;;;;;;;;5054496;28;20021;-78
2021/06/07 09:16:00;;;;;;;6.55;3.75;;;;;;;;;;5032781;28;20029;-82
2021/06/07 09:18:26;;;;;;;5.88;3.88;;;;;;;;;;5053107;28;20032;-76
2021/06/07 09:20:58;;;;;;;7.10;3.90;;;;;;;;;;5047865;28;20476;-73
2021/06/07 09:23:24;;;;;;;5.25;3.92;;;;;;;;;;5051821;28;20040;-80
2021/06/07 09:25:50;;;;;;;8.20;4.20;;;;;;;;;;5041168;28;20551;-86
2021/06/07 09:28:23;;;;;;;5.40;3.83;;;;;;;;;;5051920;28;20165;-88
2021/06/07 09:30:49;;;;;;;;;;;;;;;;;;5049924;28;20390;-80
2021/06/07 09:33:20;;;;;;;5.13;3.72;;;;;;;;;;5051155;28;19921;-84
2021/06/07 09:35:48;;;;;;;6.63;3.72;;;;;;;;;;5050461;28;20098;-82
2021/06/07 09:38:14;;;;;;;7.50;4.18;;;;;;;;;;5051107;28;20025;-82
2021/06/07 09:40:40;;;;;;;10.43;3.85;;;;;;;;;;5051548;28;20024;-82
2021/06/07 09:43:06;;;;;;;7.07;4.03;;;;;;;;;;5051296;28;20021;-75
2021/06/07 09:46:00;;;;;;;6.95;4.13;;;;;;;;;;5051045;28;20107;-79
2021/06/07 09:48:29;;;;;;;8.18;4.10;;;;;;;;;;5047601;28;20056;-77
2021/06/07 09:50:56;;;;;;;9.43;4.15;;;;;;;;;;5048970;28;20114;-84
2021/06/07 09:53:40;;;;;;;11.90;4.55;;;;;;;;;;5050151;28;20060;-86
2021/06/07 09:56:07;;;;;;;6.65;3.78;;;;;;;;;;5050018;28;20033;-79
2021/06/07 09:58:36;;;;;;;5.53;3.88;;;;;;;;;;5050705;28;20084;-85
2021/06/07 10:01:19;;;;;;;4.80;3.58;;;;;;;;;;5051356;28;20024;-77
2021/06/07 10:03:54;;;;;;;6.60;3.67;;;;;;;;;;5045983;28;20562;-79
2021/06/07 10:06:21;;;;;;;6.28;3.90;;;;;;;;;;5048769;28;20025;-72
2021/06/07 10:08:48;;;;;;;6.35;4.18;;;;;;;;;;5048468;28;20032;-80
2021/06/07 10:11:18;;;;;;;9.50;3.95;;;;;;;;;;5049560;28;20482;-79
2021/06/07 10:13:44;;;;;;;4.75;3.58;;;;;;;;;;5049360;28;20041;-73
2021/06/07 10:16:10;;;;;;;5.75;4.10;;;;;;;;;;5049203;28;20017;-77
2021/06/07 10:18:37;;;;;;;6.25;3.78;;;;;;;;;;5049233;28;20028;-80
2021/06/07 10:21:04;;;;;;;6.80;3.50;;;;;;;;;;5030649;28;20041;-79
2021/06/07 10:23:32;;;;;;;6.80;3.90;;;;;;;;;;5049528;28;20100;-78
2021/06/07 10:25:59;;;;;;;6.32;3.72;;;;;;;;;;5050139;28;20475;-77
2021/06/07 10:28:33;;;;;;;5.93;3.67;;;;;;;;;;5051777;28;20464;-82
2021/06/07 10:31:08;;;;;;;5.43;3.30;;;;;;;;;;5048317;28;20032;-71
2021/06/07 10:33:35;;;;;;;5.30;3.63;;;;;;;;;;5049298;28;20025;-86
2021/06/07 10:36:20;;;;;;;6.38;3.83;;;;;;;;;;5051305;28;20382;-91
2021/06/07 10:38:46;;;;;;;5.65;3.70;;;;;;;;;;5051132;28;20482;-92
2021/06/07 10:41:18;;;;;;;4.88;3.50;;;;;;;;;;5033578;28;20021;-75
2021/06/07 10:43:45;;;;;;;5.83;3.93;;;;;;;;;;5049580;28;20517;-72
2021/06/07 10:46:21;;;;;;;6.93;3.63;;;;;;;;;;5047721;28;20747;-74
2021/06/07 10:48:51;;;;;;;5.10;3.50;;;;;;;;;;5049316;28;20502;-75
2021/06/07 10:51:17;;;;;;;6.43;3.70;;;;;;;;;;5048332;28;20013;-72
2021/06/07 10:53:43;;;;;;;6.20;3.70;;;;;;;;;;5043740;28;20108;-76
2021/06/07 10:56:09;;;;;;;12.90;4.10;;;;;;;;;;5049867;28;20025;-74
2021/06/07 10:58:36;;;;;;;8.13;3.90;;;;;;;;;;5046152;28;20100;-74
2021/06/07 11:01:04;;;;;;;8.65;4.38;;;;;;;;;;5048525;28;20483;-89
2021/06/07 11:03:33;;;;;;;4.85;3.60;;;;;;;;;;5030500;28;20518;-87
2021/06/07 11:06:01;;;;;;;5.07;3.58;;;;;;;;;;5049367;28;20143;-75
2021/06/07 11:08:31;;;;;;;3.90;3.38;;;;;;;;;;5050180;28;20044;-77
2021/06/07 11:11:09;;;;;;;8.23;3.85;;;;;;;;;;5046498;28;20029;-83
2021/06/07 11:13:44;;;;;;;6.90;3.42;;;;;;;;;;5049270;28;20032;-76
2021/06/07 11:16:25;;;;;;;4.38;3.45;;;;;;;;;;5047930;28;20091;-79
2021/06/07 11:18:59;;;;;;;7.32;3.67;;;;;;;;;;5047495;28;20032;-84
2021/06/07 11:21:27;;;;;;;8.98;3.63;;;;;;;;;;5044466;28;20103;-73
2021/06/07 11:23:53;;;;;;;5.63;3.40;;;;;;;;;;5050497;28;20033;-73
2021/06/07 11:26:21;;;;;;;5.90;3.50;;;;;;;;;;5052162;28;20530;-75
2021/06/07 11:28:48;;;;;;;5.88;3.60;;;;;;;;;;5052024;28;20045;-73
2021/06/07 11:31:20;;;;;;;4.25;3.47;;;;;;;;;;5053988;28;20029;-75
2021/06/07 11:33:52;;;;;;;5.05;3.28;;;;;;;;;;5053187;28;20099;-73
2021/06/07 11:36:37;;;;;;;4.20;3.33;;;;;;;;;;5053286;28;20022;-74
2021/06/07 11:39:06;;;;;;;4.03;3.22;;;;;;;;;;5053252;28;20037;-74
2021/06/07 11:41:40;;;;;;;6.43;3.75;;;;;;;;;;5053542;28;20487;-73
2021/06/07 11:44:06;;;;;;;5.45;3.38;;;;;;;;;;5052576;28;20040;-74
2021/06/07 11:46:32;;;;;;;6.10;3.28;;;;;;;;;;5053450;28;20422;-73
2021/06/07 11:49:05;;;;;;;5.20;3.30;;;;;;;;;;5052008;28;20029;-73
2021/06/07 11:51:32;;;;;;;7.70;3.40;;;;;;;;;;5053366;28;20021;-74
2021/06/07 11:53:58;;;;;;;6.40;3.22;;;;;;;;;;5052773;28;20025;-75
2021/06/07 11:56:24;;;;;;;9.23;3.20;;;;;;;;;;5052508;28;20475;-73
2021/06/07 11:58:51;;;;;;;4.85;3.28;;;;;;;;;;5052304;28;20033;-74
2021/06/07 12:01:17;;;;;;;6.85;3.53;;;;;;;;;;5053634;28;20025;-73
2021/06/07 12:03:46;;;;;;;4.93;3.40;;;;;;;;;;5056270;28;20041;-73
2021/06/07 12:06:12;;;;;;;5.80;2.95;;;;;;;;;;5048911;28;20025;-73
2021/06/07 12:08:40;;;;;;;4.78;3.22;;;;;;;;;;5058116;28;20052;-72
2021/06/07 12:11:06;;;;;;;6.40;3.38;;;;;;;;;;5050860;28;20493;-72
2021/06/07 12:13:34;;;;;;;6.20;3.53;;;;;;;;;;5048705;28;20071;-72
2021/06/07 12:16:02;;;;;;;7.53;3.28;;;;;;;;;;5052885;28;20071;-72
2021/06/07 12:18:40;;;;;;;6.22;3.40;;;;;;;;;;5048558;28;20426;-73
2021/06/07 12:21:14;;;;;;;5.78;3.10;;;;;;;;;;5052986;28;20020;-72
2021/06/07 12:23:44;;;;;;;7.95;3.60;;;;;;;;;;5043384;28;20086;-72
2021/06/07 12:29:21;;;;;;;5.47;3.45;;;;;;;;;;5045169;28;20087;-72
2021/06/07 12:32:02;;;;;;;5.50;3.20;;;;;;;;;;5035218;28;20115;-73
2021/06/07 12:34:28;;;;;;;5.15;3.15;;;;;;;;;;5058287;28;20029;-72
2021/06/07 12:36:56;;;;;;;3.75;3.10;;;;;;;;;;5052032;28;20032;-75
2021/06/07 12:39:23;;;;;;;6.13;3.13;;;;;;;;;;5034761;28;20154;-74
2021/06/07 12:41:50;;;;;;;7.50;3.53;;;;;;;;;;5052234;28;20087;-74
2021/06/07 12:44:21;;;;;;;5.28;3.33;;;;;;;;;;5052032;28;20029;-72
2021/06/07 12:46:55;;;;;;;3.90;2.97;;;;;;;;;;5033077;28;20025;-72
2021/06/07 12:49:24;;;;;;;5.38;3.40;;;;;;;;;;5040681;28;20094;-73
2021/06/07 12:52:00;;;;;;;5.05;3.38;;;;;;;;;;5049838;28;20025;-75
2021/06/07 12:54:28;;;;;;;5.10;3.30;;;;;;;;;;5048821;28;20021;-75
2021/06/07 12:56:56;;;;;;;5.50;3.20;;;;;;;;;;5046007;28;20033;-74
2021/06/07 12:59:30;;;;;;;7.57;3.67;;;;;;;;;;5045149;28;20021;-73
2021/06/07 13:01:57;;;;;;;8.43;3.22;;;;;;;;;;5051215;28;20028;-74
2021/06/07 13:04:27;;;;;;;4.82;3.20;;;;;;;;;;5051393;28;20041;-74
2021/06/07 13:06:53;;;;;;;3.25;2.95;;;;;;;;;;5052286;28;20092;-72
2021/06/07 13:09:44;;;;;;;8.98;3.60;;;;;;;;;;5052139;28;20029;-72
2021/06/07 13:12:15;;;;;;;5.25;3.28;;;;;;;;;;5051891;28;20032;-74
2021/06/07 13:14:41;;;;;;;5.30;3.10;;;;;;;;;;5050463;28;20017;-73
2021/06/07 13:17:12;;;;;;;6.90;3.15;;;;;;;;;;5053076;28;20029;-73
2021/06/07 13:19:44;;;;;;;5.65;3.22;;;;;;;;;;5052003;28;20095;-74
2021/06/07 13:22:12;;;;;;;5.93;3.13;;;;;;;;;;5050730;28;20021;-74
2021/06/07 13:24:39;;;;;;;8.15;3.33;;;;;;;;;;5035363;28;20037;-72
2021/06/07 13:27:05;;;;;;;4.13;3.00;;;;;;;;;;5047035;28;20017;-74
2021/06/07 13:29:39;;;;;;;5.32;3.08;;;;;;;;;;5047372;28;20029;-76
2021/06/07 13:32:11;;;;;;;5.05;3.30;;;;;;;;;;5051776;28;20108;-74
2021/06/07 13:34:39;;;;;;;5.53;3.10;;;;;;;;;;5051320;28;20059;-76
2021/06/07 13:37:26;;;;;;;6.80;3.50;;;;;;;;;;5035840;28;20033;-75
2021/06/07 13:39:57;;;;;;;6.45;3.28;;;;;;;;;;5051572;28;20029;-73
2021/06/07 13:42:23;;;;;;;5.82;3.35;;;;;;;;;;5050299;28;20482;-75
2021/06/07 13:44:59;;;;;;;5.63;3.20;;;;;;;;;;5051168;28;20028;-74
2021/06/07 13:47:26;;;;;;;6.28;3.30;;;;;;;;;;5047525;28;20076;-73
2021/06/07 13:50:18;;;;;;;5.60;3.10;;;;;;;;;;5045515;28;20033;-72
2021/06/07 13:52:47;;;;;;;6.28;3.25;;;;;;;;;;5047221;28;20114;-74
2021/06/07 13:55:19;;;;;;;6.90;3.30;;;;;;;;;;5051182;28;20032;-75
2021/06/07 13:57:53;;;;;;;5.53;3.70;;;;;;;;;;5051794;28;20083;-74
2021/06/07 14:00:18;;;;;;;;;;;;;;;;;;5048824;28;20027;-73
2021/06/07 14:02:44;;;;;;;7.60;3.50;;;;;;;;;;5048823;28;19912;-74
2021/06/07 14:05:11;;;;;;;6.97;3.60;;;;;;;;;;5049994;28;20086;-73
2021/06/07 14:07:37;;;;;;;11.93;4.35;;;;;;;;;;5050300;28;20025;-73
2021/06/07 14:10:04;;;;;;;4.85;3.22;;;;;;;;;;5046170;28;20048;-72
2021/06/07 14:12:30;;;;;;;9.73;3.67;;;;;;;;;;5046696;28;20035;-72
2021/06/07 14:14:56;;;;;;;6.00;3.28;;;;;;;;;;5050453;28;20056;-72
2021/06/07 14:17:22;;;;;;;6.63;3.35;;;;;;;;;;5051812;28;20592;-73
2021/06/07 14:19:48;;;;;;;7.00;3.45;;;;;;;;;;5033519;28;20065;-72
2021/06/07 14:24:42;;;;;;;6.72;3.22;;;;;;;;;;5046579;28;20041;-73
2021/06/07 14:27:09;;;;;;;8.00;3.22;;;;;;;;;;5050482;28;20107;-74
2021/06/07 14:29:38;;;;;;;5.10;3.05;;;;;;;;;;5050204;28;20807;-77
2021/06/07 14:32:04;;;;;;;8.70;3.10;;;;;;;;;;5049508;28;20033;-72
2021/06/07 14:34:30;;;;;;;34.20;4.90;;;;;;;;;;5043564;28;20033;-72
2021/06/07 14:36:57;;;;;;;7.32;2.97;;;;;;;;;;5049072;28;20090;-75
2021/06/07 14:39:23;;;;;;;4.55;3.35;;;;;;;;;;5045838;28;20021;-75